createdAt,value
2024-01-01T00:04:56.588Z,6
2024-01-01T00:09:56.064Z,5
2024-01-01T00:14:56.679Z,4
2024-01-01T00:19:56.056Z,4
2024-01-01T00:24:56.077Z,4
2024-01-01T00:29:56.201Z,4
2024-01-01T00:34:56.112Z,3
2024-01-01T00:39:56.095Z,4
2024-01-01T00:44:56.775Z,3
2024-01-01T00:49:56.795Z,3
2024-01-01T00:54:56.158Z,2
2024-01-01T00:59:56.143Z,3
2024-01-01T01:05:11.797Z,2
2024-01-01T01:09:56.653Z,3
2024-01-01T01:14:56.777Z,3
2024-01-01T01:19:56.788Z,4
2024-01-01T01:24:56.161Z,2
2024-01-01T01:29:56.215Z,3
2024-01-01T01:34:56.848Z,3
2024-01-01T01:39:56.203Z,3
2024-01-01T01:44:56.230Z,3
2024-01-01T01:49:56.225Z,3
2024-01-01T01:54:56.334Z,3
2024-01-01T01:59:56.307Z,3
2024-01-01T02:04:57.254Z,4
2024-01-01T02:09:56.752Z,2
2024-01-01T02:14:56.893Z,3
2024-01-01T02:19:56.850Z,4
2024-01-01T02:39:57.265Z,4
2024-01-01T02:44:56.931Z,2
2024-01-01T02:49:56.911Z,2
2024-01-01T02:54:56.966Z,2
2024-01-01T02:59:56.652Z,2
2024-01-01T03:04:56.418Z,2
2024-01-01T03:09:57.101Z,2
2024-01-01T03:14:56.879Z,2
2024-01-01T03:19:56.479Z,2
2024-01-01T03:24:56.432Z,2
2024-01-01T03:39:57.320Z,2
2024-01-01T03:44:56.528Z,2
2024-01-01T03:49:57.030Z,2
2024-01-01T03:54:57.026Z,2
2024-01-01T03:59:56.998Z,3
2024-01-01T04:04:57.183Z,2
2024-01-01T04:09:57.001Z,2
2024-01-01T04:19:57.027Z,2
2024-01-01T04:24:56.476Z,2
2024-01-01T04:29:56.600Z,2
2024-01-01T04:34:57.141Z,3
2024-01-01T04:44:57.033Z,2
2024-01-01T04:49:57.250Z,3
2024-01-01T04:54:57.194Z,2
2024-01-01T04:59:56.582Z,2
2024-01-01T05:04:56.723Z,2
2024-01-01T05:09:56.700Z,2
2024-01-01T05:14:56.592Z,3
2024-01-01T05:19:57.123Z,2
2024-01-01T05:24:56.712Z,2
2024-01-01T05:29:56.606Z,2
2024-01-01T05:34:56.612Z,3
2024-01-01T05:54:57.431Z,3
2024-01-01T05:59:57.176Z,2
2024-01-01T06:04:56.959Z,2
2024-01-01T06:09:56.768Z,2
2024-01-01T06:14:57.213Z,2
2024-01-01T06:19:57.266Z,2
2024-01-01T06:24:56.709Z,2
2024-01-01T06:29:56.864Z,2
2024-01-01T06:34:56.891Z,2
2024-01-01T06:39:56.771Z,2
2024-01-01T06:44:56.749Z,2
2024-01-01T06:49:57.278Z,3
2024-01-01T06:54:56.854Z,2
2024-01-01T06:59:57.725Z,2
2024-01-01T07:04:57.332Z,2
2024-01-01T07:09:56.790Z,2
2024-01-01T07:14:57.320Z,2
2024-01-01T07:19:56.877Z,2
2024-01-01T07:24:57.325Z,2
2024-01-01T07:29:56.954Z,2
2024-01-01T07:34:57.467Z,2
2024-01-01T07:39:56.965Z,2
2024-01-01T07:44:57.440Z,2
2024-01-01T07:49:56.891Z,2
2024-01-01T07:54:56.855Z,2
2024-01-01T07:59:57.806Z,2
2024-01-01T08:04:57.055Z,3
2024-01-01T08:09:57.384Z,3
2024-01-01T08:14:57.407Z,3
2024-01-01T08:19:57.058Z,2
2024-01-01T08:24:56.934Z,3
2024-01-01T08:29:56.943Z,2
2024-01-01T08:34:57.662Z,2
2024-01-01T08:39:57.855Z,2
2024-01-01T08:44:57.047Z,3
2024-01-01T08:49:57.098Z,3
2024-01-01T08:54:56.978Z,3
2024-01-01T08:59:57.070Z,2
2024-01-01T09:04:57.348Z,2
2024-01-01T09:09:57.001Z,2
2024-01-01T09:14:57.522Z,2
2024-01-01T09:19:57.608Z,2
2024-01-01T09:24:57.514Z,2
2024-01-01T09:29:57.635Z,2
2024-01-01T09:34:57.668Z,2
2024-01-01T09:39:57.812Z,2
2024-01-01T09:44:58.185Z,1
2024-01-01T09:49:58.169Z,2
2024-01-01T09:54:58.318Z,3
2024-01-01T09:59:57.648Z,2
2024-01-01T10:04:57.705Z,1
2024-01-01T10:10:00.407Z,2
2024-01-01T10:14:57.097Z,2
2024-01-01T10:19:58.044Z,2
2024-01-01T10:34:58.002Z,2
2024-01-01T10:39:57.267Z,2
2024-01-01T10:44:57.689Z,5
2024-01-01T10:49:57.782Z,10
2024-01-01T10:54:57.697Z,26
2024-01-01T10:59:57.203Z,14
2024-01-01T11:04:57.184Z,45
2024-01-01T11:09:57.744Z,21
2024-01-01T11:14:57.728Z,3
2024-01-01T11:19:57.799Z,13
2024-01-01T11:24:57.501Z,3
2024-01-01T11:29:57.787Z,5
2024-01-01T11:34:57.842Z,4
2024-01-01T11:39:57.756Z,4
2024-01-01T11:44:57.780Z,3
2024-01-01T11:49:57.822Z,3
2024-01-01T11:54:57.280Z,2
2024-01-01T11:59:57.307Z,2
2024-01-01T12:04:57.453Z,16
2024-01-01T12:09:57.805Z,5
2024-01-01T12:14:57.851Z,4
2024-01-01T12:19:57.342Z,3
2024-01-01T12:24:57.359Z,3
2024-01-01T12:29:57.422Z,3
2024-01-01T12:34:57.422Z,4
2024-01-01T12:39:57.906Z,4
2024-01-01T12:44:57.389Z,5
2024-01-01T12:49:57.946Z,2
2024-01-01T12:59:57.905Z,4
2024-01-01T13:04:57.492Z,3
2024-01-01T13:09:57.409Z,2
2024-01-01T13:24:58.248Z,2
2024-01-01T13:29:57.443Z,2
2024-01-01T13:34:57.466Z,2
2024-01-01T13:39:57.486Z,2
2024-01-01T13:44:57.990Z,2
2024-01-01T13:54:57.498Z,2
2024-01-01T14:14:58.365Z,2
2024-01-01T14:19:57.571Z,3
2024-01-01T14:24:58.073Z,3
2024-01-01T14:29:57.585Z,3
2024-01-01T14:34:58.146Z,2
2024-01-01T14:49:58.452Z,2
2024-01-01T14:54:57.616Z,3
2024-01-01T14:59:58.129Z,2
2024-01-01T15:04:57.685Z,2
2024-01-01T15:09:57.622Z,3
2024-01-01T15:14:59.156Z,2
2024-01-01T15:19:57.673Z,2
2024-01-01T15:24:57.678Z,3
2024-01-01T15:34:58.240Z,2
2024-01-01T15:39:57.697Z,3
2024-01-01T15:44:58.210Z,2
2024-01-01T15:49:58.282Z,2
2024-01-01T15:54:58.264Z,3
2024-01-01T15:59:57.726Z,3
2024-01-01T16:19:58.663Z,3
2024-01-01T16:24:57.753Z,3
2024-01-01T16:29:58.411Z,2
2024-01-01T16:34:57.845Z,3
2024-01-01T16:39:57.806Z,5
2024-01-01T16:59:58.638Z,5
2024-01-01T17:04:57.903Z,2
2024-01-01T17:09:57.855Z,2
2024-01-01T17:14:58.642Z,3
2024-01-01T17:19:57.913Z,3
2024-01-01T17:24:57.881Z,3
2024-01-01T17:29:57.865Z,3
2024-01-01T17:34:57.897Z,7
2024-01-01T17:39:57.917Z,5
2024-01-01T17:44:57.904Z,5
2024-01-01T18:04:58.931Z,5
2024-01-01T18:09:57.952Z,3
2024-01-01T18:24:58.816Z,3
2024-01-01T18:29:58.018Z,3
2024-01-01T18:34:58.055Z,4
2024-01-01T18:39:58.017Z,4
2024-01-01T18:44:58.062Z,4
2024-01-01T18:49:58.350Z,4
2024-01-01T18:54:58.586Z,3
2024-01-01T18:59:58.025Z,4
2024-01-01T19:04:58.712Z,5
2024-01-01T19:09:58.091Z,4
2024-01-01T19:24:58.898Z,4
2024-01-01T19:29:58.099Z,7
2024-01-01T19:39:58.146Z,6
2024-01-01T19:44:58.131Z,8
2024-01-01T19:49:58.159Z,12
2024-01-01T19:54:58.659Z,10
2024-01-01T19:59:58.645Z,8
2024-01-01T20:04:58.180Z,8
2024-01-01T20:09:58.686Z,7
2024-01-01T20:14:58.695Z,7
2024-01-01T20:24:58.687Z,7
2024-01-01T20:29:58.729Z,8
2024-01-01T20:34:58.762Z,9
2024-01-01T20:39:58.325Z,6
2024-01-01T20:44:58.234Z,7
2024-01-01T20:49:58.776Z,6
2024-01-01T20:54:58.906Z,5
2024-01-01T20:59:58.367Z,5
2024-01-01T21:04:58.793Z,6
2024-01-01T21:19:58.613Z,4
2024-01-01T21:24:58.324Z,5
2024-01-01T21:29:58.302Z,5
2024-01-01T21:34:58.340Z,6
2024-01-01T21:39:58.338Z,6
2024-01-01T21:44:58.840Z,6
2024-01-01T21:49:58.359Z,7
2024-01-01T21:54:59.467Z,7
2024-01-01T21:59:58.379Z,6
2024-01-01T22:04:59.028Z,7
2024-01-01T22:09:58.366Z,8
2024-01-01T22:14:58.541Z,6
2024-01-01T22:19:58.948Z,7
2024-01-01T22:24:58.431Z,6
2024-01-01T22:29:58.399Z,6
2024-01-01T22:34:58.469Z,6
2024-01-01T22:39:58.433Z,6
2024-01-01T22:44:58.437Z,8
2024-01-01T22:54:58.471Z,10
2024-01-01T22:59:58.450Z,10
2024-01-01T23:04:58.522Z,9
2024-01-01T23:10:00.903Z,7
2024-01-01T23:14:58.983Z,7
2024-01-01T23:19:59.093Z,7
2024-01-01T23:24:58.497Z,6
2024-01-01T23:29:58.529Z,7
2024-01-01T23:34:59.275Z,7
2024-01-01T23:45:04.454Z,7
2024-01-01T23:49:59.208Z,7
2024-01-01T23:54:58.586Z,7
2024-01-01T23:59:58.614Z,7
